createdAt,value
2017-10-01T00:02:24.329Z,74.44
2017-10-01T00:04:52.814Z,74.29
2017-10-01T00:07:21.393Z,74.49
2017-10-01T00:09:49.833Z,74.49
2017-10-01T00:12:19.060Z,74.34
2017-10-01T00:14:47.497Z,74.71
2017-10-01T00:17:15.961Z,74.45
2017-10-01T00:19:44.404Z,74.42
2017-10-01T00:22:12.865Z,74.58
2017-10-01T00:24:42.073Z,74.54
2017-10-01T00:27:11.328Z,74.38
2017-10-01T00:29:39.769Z,74.37
2017-10-01T00:32:08.270Z,74.61
2017-10-01T00:34:36.752Z,74.79
2017-10-01T00:37:05.235Z,74.39
2017-10-01T00:39:33.701Z,74.45
2017-10-01T00:42:02.137Z,74.33
2017-10-01T00:44:30.597Z,74.45
2017-10-01T00:46:59.043Z,74.37
2017-10-01T00:49:27.504Z,74.68
2017-10-01T00:51:56.709Z,74.28
2017-10-01T00:54:25.941Z,74.36
2017-10-01T00:56:54.380Z,74.22
2017-10-01T00:59:23.721Z,74.09
2017-10-01T01:01:52.197Z,74.16
2017-10-01T01:04:20.656Z,74.13
2017-10-01T01:06:49.856Z,73.96
2017-10-01T01:09:19.188Z,74.11
2017-10-01T01:11:47.671Z,74.50
2017-10-01T01:14:16.153Z,74.23
2017-10-01T01:16:44.628Z,74.22
2017-10-01T01:19:13.113Z,74.76
2017-10-01T01:21:41.572Z,74.70
2017-10-01T01:24:10.081Z,75.03
2017-10-01T01:26:38.540Z,75.01
2017-10-01T01:29:07.148Z,74.99
2017-10-01T01:31:35.640Z,75.58
2017-10-01T01:34:04.083Z,75.20
2017-10-01T01:36:32.548Z,75.40
2017-10-01T01:39:01.753Z,75.45
2017-10-01T01:41:30.981Z,75.54
2017-10-01T01:43:59.464Z,75.95
2017-10-01T01:46:28.053Z,76.01
2017-10-01T01:48:56.541Z,76.01
2017-10-01T01:51:24.980Z,76.14
2017-10-01T01:53:54.212Z,76.47
2017-10-01T01:56:22.702Z,76.78
2017-10-01T01:58:51.160Z,76.74
2017-10-01T02:01:19.606Z,76.55
2017-10-01T02:03:48.146Z,76.45
2017-10-01T02:06:16.631Z,76.56
2017-10-01T02:08:45.097Z,76.57
2017-10-01T02:11:13.541Z,76.40
2017-10-01T02:13:42.005Z,76.57
2017-10-01T02:16:10.457Z,76.35
2017-10-01T02:18:38.927Z,76.23
2017-10-01T02:21:07.417Z,76.45
2017-10-01T02:23:35.910Z,75.99
2017-10-01T02:26:04.385Z,75.84
2017-10-01T02:28:32.869Z,76.78
2017-10-01T02:31:01.309Z,76.38
2017-10-01T02:33:30.521Z,76.53
2017-10-01T02:35:58.985Z,76.12
2017-10-01T02:38:28.198Z,75.90
2017-10-01T02:40:57.526Z,76.00
2017-10-01T02:43:25.969Z,75.83
2017-10-01T02:45:55.196Z,76.47
2017-10-01T02:48:23.689Z,76.50
2017-10-01T02:50:52.197Z,76.43
2017-10-01T02:53:20.643Z,75.72
2017-10-01T02:55:49.148Z,76.19
2017-10-01T02:58:17.589Z,76.43
2017-10-01T03:00:46.817Z,75.82
2017-10-01T03:03:15.261Z,76.12
2017-10-01T03:05:44.581Z,76.09
2017-10-01T03:08:13.030Z,75.77
2017-10-01T03:10:41.497Z,76.19
2017-10-01T03:13:09.942Z,76.07
2017-10-01T03:15:38.409Z,75.64
2017-10-01T03:18:06.910Z,75.89
2017-10-01T03:20:35.395Z,75.90
2017-10-01T03:23:03.861Z,75.76
2017-10-01T03:25:32.296Z,75.98
2017-10-01T03:28:00.844Z,75.89
2017-10-01T03:30:29.324Z,75.94
2017-10-01T03:32:57.910Z,75.59
2017-10-01T03:35:26.354Z,75.42
2017-10-01T03:37:54.872Z,75.85
2017-10-01T03:40:23.349Z,75.58
2017-10-01T03:42:51.876Z,75.37
2017-10-01T03:45:20.318Z,75.54
2017-10-01T03:47:48.777Z,75.62
2017-10-01T03:50:17.216Z,75.93
2017-10-01T03:52:45.685Z,75.87
2017-10-01T03:55:14.129Z,75.63
2017-10-01T03:57:42.593Z,75.40
2017-10-01T04:00:11.801Z,75.83
2017-10-01T04:02:40.306Z,75.56
2017-10-01T04:05:08.748Z,75.38
2017-10-01T04:07:37.956Z,75.61
2017-10-01T04:10:07.181Z,75.17
2017-10-01T04:12:35.625Z,75.09
2017-10-01T04:15:04.858Z,75.38
2017-10-01T04:17:33.305Z,75.29
2017-10-01T04:20:02.645Z,75.62
2017-10-01T04:22:31.084Z,75.25
2017-10-01T04:25:00.313Z,75.33
2017-10-01T04:27:28.748Z,75.22
2017-10-01T04:29:57.217Z,76.15
2017-10-01T04:32:25.671Z,75.43
2017-10-01T04:34:54.141Z,75.30
2017-10-01T04:37:22.641Z,75.85
2017-10-01T04:39:51.225Z,75.76
2017-10-01T04:42:19.701Z,75.56
2017-10-01T04:44:48.177Z,75.87
2017-10-01T04:47:16.617Z,75.93
2017-10-01T04:49:45.076Z,76.01
2017-10-01T04:52:13.517Z,75.49
2017-10-01T04:54:42.005Z,75.66
2017-10-01T04:57:10.497Z,75.72
2017-10-01T04:59:38.973Z,76.10
2017-10-01T05:02:07.440Z,76.10
2017-10-01T05:04:35.885Z,76.25
2017-10-01T05:07:04.353Z,75.97
2017-10-01T05:09:32.907Z,76.00
2017-10-01T05:12:01.378Z,76.20
2017-10-01T05:14:29.821Z,76.38
2017-10-01T05:16:59.061Z,75.63
2017-10-01T05:19:27.502Z,75.36
2017-10-01T05:21:56.863Z,75.61
2017-10-01T05:24:25.305Z,75.46
2017-10-01T05:26:54.538Z,75.47
2017-10-01T05:29:22.976Z,75.31
2017-10-01T05:31:52.230Z,75.14
2017-10-01T05:34:20.673Z,74.98
2017-10-01T05:36:49.186Z,74.66
2017-10-01T05:39:17.764Z,74.88
2017-10-01T05:41:46.208Z,75.00
2017-10-01T05:44:15.442Z,74.87
2017-10-01T05:46:43.892Z,75.23
2017-10-01T05:49:13.121Z,74.98
2017-10-01T05:51:41.575Z,75.01
2017-10-01T05:54:10.909Z,75.07
2017-10-01T05:56:39.362Z,75.15
2017-10-01T05:59:08.691Z,75.19
2017-10-01T06:01:37.177Z,75.44
2017-10-01T06:04:05.754Z,74.84
2017-10-01T06:06:34.198Z,74.91
2017-10-01T06:09:03.436Z,74.31
2017-10-01T06:11:31.886Z,75.19
2017-10-01T06:14:01.227Z,74.81
2017-10-01T06:16:30.535Z,74.85
2017-10-01T06:18:59.021Z,75.43
2017-10-01T06:21:27.610Z,75.14
2017-10-01T06:23:56.073Z,74.93
2017-10-01T06:26:24.551Z,74.72
2017-10-01T06:28:53.033Z,74.44
2017-10-01T06:31:21.507Z,74.95
2017-10-01T06:33:49.950Z,74.73
2017-10-01T06:36:19.190Z,75.04
2017-10-01T06:38:47.633Z,74.26
2017-10-01T06:41:16.984Z,74.31
2017-10-01T06:43:45.442Z,74.25
2017-10-01T06:46:13.914Z,74.52
2017-10-01T06:48:43.125Z,74.63
2017-10-01T06:51:11.589Z,74.99
2017-10-01T06:53:40.805Z,74.44
2017-10-01T06:56:09.273Z,74.56
2017-10-01T06:58:38.486Z,74.47
2017-10-01T07:01:06.985Z,74.64
2017-10-01T07:03:35.470Z,74.72
2017-10-01T07:06:03.962Z,74.73
2017-10-01T07:08:32.429Z,74.74
2017-10-01T07:11:00.874Z,74.86
2017-10-01T07:13:30.218Z,75.43
2017-10-01T07:15:58.703Z,74.80
2017-10-01T07:18:27.169Z,74.42
2017-10-01T07:20:55.608Z,74.57
2017-10-01T07:23:24.140Z,74.16
2017-10-01T07:25:52.597Z,74.22
2017-10-01T07:28:21.830Z,74.55
2017-10-01T07:30:50.314Z,74.47
2017-10-01T07:33:18.789Z,73.85
2017-10-01T07:35:47.244Z,74.02
2017-10-01T07:38:16.510Z,73.98
2017-10-01T07:40:44.948Z,73.44
2017-10-01T07:43:13.389Z,72.46
2017-10-01T07:45:42.626Z,72.75
2017-10-01T07:48:11.070Z,72.58
2017-10-01T07:50:40.301Z,72.23
2017-10-01T07:53:08.745Z,72.02
2017-10-01T07:55:37.213Z,72.87
2017-10-01T07:58:05.765Z,71.96
2017-10-01T08:00:34.239Z,71.08
2017-10-01T08:03:02.721Z,71.43
2017-10-01T08:05:31.189Z,71.50
2017-10-01T08:07:59.633Z,70.92
2017-10-01T08:10:28.239Z,70.61
2017-10-01T08:12:57.454Z,70.25
2017-10-01T08:15:25.926Z,70.82
2017-10-01T08:17:55.142Z,70.64
2017-10-01T08:20:23.609Z,70.58
2017-10-01T08:22:52.803Z,70.99
2017-10-01T08:25:22.140Z,71.11
2017-10-01T08:27:50.581Z,71.29
2017-10-01T08:30:19.815Z,71.23
2017-10-01T08:32:48.284Z,71.24
2017-10-01T08:35:16.732Z,71.51
2017-10-01T08:37:45.969Z,70.94
2017-10-01T08:40:14.466Z,70.71
2017-10-01T08:42:43.037Z,70.99
2017-10-01T08:45:11.486Z,71.24
2017-10-01T08:47:40.717Z,71.34
2017-10-01T08:50:09.229Z,70.60
2017-10-01T08:52:37.697Z,70.42
2017-10-01T08:55:06.173Z,71.25
2017-10-01T08:57:34.762Z,71.23
2017-10-01T09:00:03.245Z,71.44
2017-10-01T09:02:31.713Z,71.08
2017-10-01T09:05:00.157Z,70.89
2017-10-01T09:07:29.414Z,71.45
2017-10-01T09:09:57.853Z,71.57
2017-10-01T09:12:27.066Z,71.85
2017-10-01T09:14:55.566Z,72.12
2017-10-01T09:17:24.053Z,72.28
2017-10-01T09:19:52.522Z,72.78
2017-10-01T09:22:20.965Z,72.56
2017-10-01T09:24:50.201Z,73.14
2017-10-01T09:27:18.698Z,72.56
2017-10-01T09:29:47.282Z,72.76
2017-10-01T09:32:15.727Z,72.97
2017-10-01T09:34:44.962Z,73.57
2017-10-01T09:37:13.405Z,73.64
2017-10-01T09:39:42.638Z,73.88
2017-10-01T09:42:11.084Z,74.24
2017-10-01T09:44:40.426Z,73.63
2017-10-01T09:47:08.909Z,73.43
2017-10-01T09:49:37.353Z,72.95
2017-10-01T09:52:06.581Z,72.97
2017-10-01T09:54:35.038Z,72.39
2017-10-01T09:57:04.382Z,72.00
2017-10-01T09:59:32.862Z,71.65
2017-10-01T10:02:01.433Z,72.23
2017-10-01T10:04:29.923Z,71.31
2017-10-01T10:06:58.381Z,72.24
2017-10-01T10:09:26.890Z,72.55
2017-10-01T10:11:55.593Z,73.07
2017-10-01T10:14:24.037Z,72.70
2017-10-01T10:16:52.532Z,72.78
2017-10-01T10:19:20.978Z,72.71
2017-10-01T10:21:50.213Z,72.65
2017-10-01T10:24:18.663Z,72.24
2017-10-01T10:26:47.897Z,73.10
2017-10-01T10:29:16.586Z,73.33
2017-10-01T10:31:45.066Z,72.66
2017-10-01T10:34:13.538Z,72.51
2017-10-01T10:36:41.976Z,72.92
2017-10-01T10:39:10.441Z,73.64
2017-10-01T10:41:38.887Z,74.27
2017-10-01T10:44:07.353Z,74.31
2017-10-01T10:46:35.960Z,74.23
2017-10-01T10:49:04.545Z,74.83
2017-10-01T10:51:32.989Z,74.46
2017-10-01T10:54:02.327Z,75.09
2017-10-01T10:56:30.772Z,74.60
2017-10-01T10:59:00.100Z,74.52
2017-10-01T11:01:28.542Z,74.65
2017-10-01T11:03:57.885Z,75.17
2017-10-01T11:06:26.333Z,75.20
2017-10-01T11:08:55.537Z,75.64
2017-10-01T11:11:24.772Z,76.28
2017-10-01T11:13:53.264Z,75.55
2017-10-01T11:16:21.734Z,75.70
2017-10-01T11:18:50.176Z,75.21
2017-10-01T11:21:19.406Z,75.44
2017-10-01T11:23:47.901Z,75.47
2017-10-01T11:26:16.370Z,75.30
2017-10-01T11:28:44.813Z,76.13
2017-10-01T11:31:14.041Z,76.90
2017-10-01T11:33:42.485Z,76.99
2017-10-01T11:36:10.945Z,77.22
2017-10-01T11:38:39.385Z,77.51
2017-10-01T11:41:07.850Z,78.05
2017-10-01T11:43:37.069Z,78.92
2017-10-01T11:46:05.553Z,79.27
2017-10-01T11:48:33.997Z,79.96
2017-10-01T11:51:02.473Z,79.68
2017-10-01T11:53:30.954Z,79.65
2017-10-01T11:55:59.407Z,79.50
2017-10-01T11:58:27.982Z,80.00
2017-10-01T12:00:56.462Z,80.35
2017-10-01T12:03:24.929Z,79.98
2017-10-01T12:05:53.368Z,80.30
2017-10-01T12:08:21.902Z,80.87
2017-10-01T12:10:50.345Z,81.65
2017-10-01T12:13:19.588Z,82.37
2017-10-01T12:15:48.034Z,83.12
2017-10-01T12:18:17.268Z,83.52
2017-10-01T12:20:45.840Z,83.99
2017-10-01T12:23:14.330Z,85.23
2017-10-01T12:25:42.822Z,84.60
2017-10-01T12:28:11.300Z,85.29
2017-10-01T12:30:39.770Z,85.42
2017-10-01T12:33:08.229Z,85.65
2017-10-01T12:35:37.462Z,84.76
2017-10-01T12:38:05.918Z,84.32
2017-10-01T12:40:34.426Z,85.11
2017-10-01T12:43:02.910Z,84.75
2017-10-01T12:45:31.380Z,85.12
2017-10-01T12:47:59.838Z,85.82
2017-10-01T12:50:29.073Z,86.19
2017-10-01T12:52:57.861Z,86.68
2017-10-01T12:55:26.320Z,86.56
2017-10-01T12:57:54.769Z,85.96
2017-10-01T13:00:28.838Z,86.05
2017-10-01T13:02:57.313Z,85.12
2017-10-01T13:05:25.781Z,85.26
2017-10-01T13:07:54.229Z,86.23
2017-10-01T13:10:22.722Z,87.13
2017-10-01T13:12:51.925Z,87.38
2017-10-01T13:15:21.138Z,87.08
2017-10-01T13:17:49.614Z,87.42
2017-10-01T13:20:18.064Z,86.42
2017-10-01T13:22:46.538Z,86.90
2017-10-01T13:25:14.983Z,86.14
2017-10-01T13:27:43.575Z,86.89
2017-10-01T13:30:12.055Z,87.09
2017-10-01T13:32:40.517Z,87.19
2017-10-01T13:35:09.019Z,86.79
2017-10-01T13:37:37.486Z,86.39
2017-10-01T13:40:05.933Z,86.97
2017-10-01T13:42:35.165Z,86.93
2017-10-01T13:45:03.659Z,87.13
2017-10-01T13:47:32.145Z,87.02
2017-10-01T13:50:00.593Z,86.88
2017-10-01T13:52:29.822Z,86.01
2017-10-01T13:54:58.284Z,86.42
2017-10-01T13:57:26.721Z,86.73
2017-10-01T13:59:55.181Z,87.38
2017-10-01T14:02:23.653Z,86.71
2017-10-01T14:04:52.121Z,85.89
2017-10-01T14:07:20.569Z,86.18
2017-10-01T14:09:49.812Z,85.82
2017-10-01T14:12:18.257Z,85.46
2017-10-01T14:14:47.602Z,85.83
2017-10-01T14:17:16.041Z,86.53
2017-10-01T14:19:45.279Z,86.47
2017-10-01T14:22:13.725Z,86.64
2017-10-01T14:24:42.962Z,86.29
2017-10-01T14:27:11.432Z,86.49
2017-10-01T14:29:39.902Z,86.31
2017-10-01T14:32:08.406Z,85.59
2017-10-01T14:34:36.897Z,86.08
2017-10-01T14:37:05.364Z,86.15
2017-10-01T14:39:33.822Z,85.87
2017-10-01T14:42:03.053Z,85.64
2017-10-01T14:44:31.501Z,85.12
2017-10-01T14:47:00.738Z,85.06
2017-10-01T14:49:29.185Z,85.21
2017-10-01T14:51:57.651Z,84.98
2017-10-01T14:54:26.856Z,85.13
2017-10-01T14:56:56.086Z,85.26
2017-10-01T14:59:24.578Z,85.27
2017-10-01T15:01:53.155Z,85.40
2017-10-01T15:04:21.643Z,85.55
2017-10-01T15:06:50.104Z,85.62
2017-10-01T15:09:18.541Z,85.80
2017-10-01T15:11:52.982Z,85.95
2017-10-01T15:14:22.193Z,85.12
2017-10-01T15:16:51.425Z,84.90
2017-10-01T15:19:19.909Z,84.92
2017-10-01T15:21:48.491Z,85.11
2017-10-01T15:24:16.937Z,85.31
2017-10-01T15:26:46.174Z,86.20
2017-10-01T15:29:14.751Z,86.05
2017-10-01T15:31:43.205Z,86.15
2017-10-01T15:34:12.438Z,85.88
2017-10-01T15:36:40.881Z,85.53
2017-10-01T15:39:10.112Z,85.06
2017-10-01T15:41:38.566Z,84.78
2017-10-01T15:44:07.806Z,85.57
2017-10-01T15:46:36.282Z,85.93
2017-10-01T15:49:04.870Z,85.99
2017-10-01T15:51:33.321Z,86.29
2017-10-01T15:54:01.831Z,85.98
2017-10-01T15:56:30.282Z,86.17
2017-10-01T15:58:58.725Z,87.23
2017-10-01T16:01:27.193Z,86.67
2017-10-01T16:03:55.759Z,86.20
2017-10-01T16:06:24.230Z,86.07
2017-10-01T16:08:52.713Z,86.18
2017-10-01T16:11:21.182Z,86.19
2017-10-01T16:13:49.633Z,86.28
2017-10-01T16:16:18.106Z,86.44
2017-10-01T16:18:46.650Z,86.73
2017-10-01T16:21:15.235Z,86.53
2017-10-01T16:23:43.682Z,86.34
2017-10-01T16:26:13.017Z,86.74
2017-10-01T16:28:41.462Z,87.03
2017-10-01T16:31:10.698Z,87.07
2017-10-01T16:33:39.172Z,87.65
2017-10-01T16:36:08.325Z,87.95
2017-10-01T16:38:36.853Z,87.93
2017-10-01T16:41:05.342Z,87.71
2017-10-01T16:43:33.789Z,87.82
2017-10-01T16:46:03.016Z,88.43
2017-10-01T16:48:31.495Z,88.76
2017-10-01T16:50:59.989Z,88.49
2017-10-01T16:53:28.462Z,88.44
2017-10-01T16:55:56.946Z,88.60
2017-10-01T16:58:25.417Z,89.08
2017-10-01T17:00:53.918Z,89.44
2017-10-01T17:03:22.501Z,89.54
2017-10-01T17:05:50.994Z,89.50
2017-10-01T17:08:19.461Z,89.53
2017-10-01T17:10:47.914Z,90.02
2017-10-01T17:13:17.248Z,89.92
2017-10-01T17:15:45.689Z,90.30
2017-10-01T17:18:15.026Z,90.21
2017-10-01T17:20:43.471Z,90.11
2017-10-01T17:23:12.681Z,90.13
2017-10-01T17:25:41.301Z,90.06
2017-10-01T17:28:09.758Z,89.98
2017-10-01T17:30:38.262Z,89.82
2017-10-01T17:33:06.745Z,90.28
2017-10-01T17:35:35.221Z,90.27
2017-10-01T17:38:03.701Z,90.38
2017-10-01T17:40:32.165Z,90.61
2017-10-01T17:43:00.617Z,90.39
2017-10-01T17:45:29.849Z,90.20
2017-10-01T17:47:58.302Z,89.97
2017-10-01T17:50:27.644Z,90.21
2017-10-01T17:52:56.137Z,90.35
2017-10-01T17:55:24.606Z,90.36
2017-10-01T17:57:53.100Z,90.51
2017-10-01T18:00:21.565Z,90.43
2017-10-01T18:02:50.028Z,90.54
2017-10-01T18:05:18.490Z,90.70
2017-10-01T18:07:47.138Z,90.84
2017-10-01T18:10:15.581Z,90.62
2017-10-01T18:12:44.815Z,90.90
2017-10-01T18:15:13.260Z,91.05
2017-10-01T18:17:42.494Z,91.36
2017-10-01T18:20:10.974Z,91.02
2017-10-01T18:22:39.437Z,91.30
2017-10-01T18:25:07.886Z,91.30
2017-10-01T18:27:37.238Z,91.31
2017-10-01T18:30:05.723Z,91.20
2017-10-01T18:32:34.304Z,91.14
2017-10-01T18:35:02.789Z,91.59
2017-10-01T18:37:31.366Z,91.38
2017-10-01T18:39:59.819Z,91.14
2017-10-01T18:42:29.155Z,91.35
2017-10-01T18:44:57.706Z,91.25
2017-10-01T18:47:27.015Z,91.17
2017-10-01T18:49:55.530Z,91.18
2017-10-01T18:52:25.634Z,91.34
2017-10-01T18:54:54.126Z,91.85
2017-10-01T18:57:22.601Z,92.20
2017-10-01T18:59:51.209Z,91.94
2017-10-01T19:02:19.664Z,92.12
2017-10-01T19:04:48.155Z,91.97
2017-10-01T19:07:16.605Z,91.79
2017-10-01T19:09:45.928Z,91.87
2017-10-01T19:12:14.373Z,91.91
2017-10-01T19:14:43.619Z,91.94
2017-10-01T19:17:12.065Z,92.20
2017-10-01T19:19:41.295Z,92.06
2017-10-01T19:22:09.737Z,92.01
2017-10-01T19:24:38.988Z,91.82
2017-10-01T19:27:07.433Z,91.70
2017-10-01T19:29:35.896Z,91.72
2017-10-01T19:32:05.150Z,91.59
2017-10-01T19:34:33.621Z,91.49
2017-10-01T19:37:02.073Z,91.23
2017-10-01T19:39:31.402Z,91.11
2017-10-01T19:41:59.837Z,91.17
2017-10-01T19:44:29.090Z,91.19
2017-10-01T19:46:57.566Z,91.41
2017-10-01T19:49:26.045Z,91.66
2017-10-01T19:51:54.486Z,91.73
2017-10-01T19:54:23.694Z,91.93
2017-10-01T19:56:52.942Z,91.97
2017-10-01T19:59:21.410Z,91.99
2017-10-01T20:01:49.898Z,92.25
2017-10-01T20:04:18.354Z,91.84
2017-10-01T20:06:46.853Z,91.93
2017-10-01T20:09:15.294Z,92.08
2017-10-01T20:11:44.537Z,92.35
2017-10-01T20:14:12.977Z,92.57
2017-10-01T20:16:42.201Z,92.76
2017-10-01T20:19:10.637Z,93.04
2017-10-01T20:21:39.118Z,93.48
2017-10-01T20:24:07.664Z,93.70
2017-10-01T20:26:36.107Z,94.00
2017-10-01T20:29:05.454Z,94.42
2017-10-01T20:31:33.929Z,94.32
2017-10-01T20:34:02.393Z,94.59
2017-10-01T20:36:30.839Z,94.37
2017-10-01T20:38:59.309Z,94.44
2017-10-01T20:41:27.755Z,94.48
2017-10-01T20:43:56.247Z,94.25
2017-10-01T20:46:24.694Z,93.94
2017-10-01T20:48:53.166Z,94.14
2017-10-01T20:51:22.373Z,94.04
2017-10-01T20:53:51.605Z,94.26
2017-10-01T20:56:20.099Z,94.30
2017-10-01T20:58:48.580Z,94.72
2017-10-01T21:01:17.051Z,94.57
2017-10-01T21:03:45.554Z,94.42
2017-10-01T21:06:14.014Z,94.52
2017-10-01T21:08:42.901Z,94.38
2017-10-01T21:11:11.406Z,94.60
2017-10-01T21:13:39.853Z,94.40
2017-10-01T21:16:08.328Z,94.24
2017-10-01T21:18:36.769Z,94.66
2017-10-01T21:21:05.238Z,94.53
2017-10-01T21:23:33.798Z,94.61
2017-10-01T21:26:02.372Z,94.66
2017-10-01T21:28:30.866Z,94.94
2017-10-01T21:30:59.338Z,94.84
2017-10-01T21:33:27.830Z,95.03
2017-10-01T21:35:56.515Z,95.21
2017-10-01T21:38:24.993Z,94.82
2017-10-01T21:40:53.453Z,94.91
2017-10-01T21:43:21.893Z,95.09
2017-10-01T21:45:50.377Z,95.01
2017-10-01T21:48:18.818Z,94.99
2017-10-01T21:50:47.305Z,95.21
2017-10-01T21:53:15.773Z,95.07
2017-10-01T21:55:44.217Z,95.01
2017-10-01T21:58:13.454Z,94.86
2017-10-01T22:00:41.956Z,94.71
2017-10-01T22:03:10.524Z,94.36
2017-10-01T22:05:39.017Z,94.38
2017-10-01T22:08:07.477Z,94.50
2017-10-01T22:10:35.925Z,94.35
2017-10-01T22:13:04.462Z,94.12
2017-10-01T22:15:32.945Z,94.11
2017-10-01T22:18:01.531Z,94.05
2017-10-01T22:20:29.969Z,93.95
2017-10-01T22:22:59.201Z,93.93
2017-10-01T22:25:27.646Z,93.73
2017-10-01T22:27:56.848Z,93.51
2017-10-01T22:30:26.077Z,93.26
2017-10-01T22:32:54.521Z,93.15
2017-10-01T22:35:23.872Z,93.06
2017-10-01T22:37:52.349Z,92.90
2017-10-01T22:40:20.837Z,92.98
2017-10-01T22:42:49.290Z,92.82
2017-10-01T22:45:17.800Z,92.66
2017-10-01T22:47:46.245Z,92.79
2017-10-01T22:50:15.477Z,92.67
2017-10-01T22:52:43.925Z,92.52
2017-10-01T22:55:13.153Z,92.31
2017-10-01T22:57:41.597Z,92.35
2017-10-01T23:00:10.915Z,92.17
2017-10-01T23:02:40.122Z,91.92
2017-10-01T23:05:08.588Z,91.97
2017-10-01T23:07:37.793Z,91.84
2017-10-01T23:10:07.041Z,91.74
2017-10-01T23:12:35.485Z,91.72
2017-10-01T23:15:03.991Z,91.74
2017-10-01T23:17:32.567Z,91.72
2017-10-01T23:20:01.017Z,91.69
2017-10-01T23:22:30.254Z,91.53
2017-10-01T23:24:58.706Z,91.42
2017-10-01T23:27:27.214Z,91.16
2017-10-01T23:29:55.702Z,91.15
2017-10-01T23:32:24.169Z,91.13
2017-10-01T23:34:52.605Z,91.05
2017-10-01T23:37:21.082Z,91.05
2017-10-01T23:39:49.529Z,91.05
2017-10-01T23:42:17.993Z,91.11
2017-10-01T23:44:46.437Z,91.17
2017-10-01T23:47:15.780Z,91.10
2017-10-01T23:49:44.275Z,91.07
2017-10-01T23:52:12.858Z,90.65
2017-10-01T23:54:41.339Z,90.65
2017-10-01T23:57:09.786Z,90.33
2017-10-01T23:59:39.025Z,90.26
